Time;durP1;ratioP1;P1;durP2;ratioP2;P2;SDS_P1;SDS_P2;PMS_P1;PMS_P2;Temp;Humidity;BMP_temperature;BMP_pressure;BME280_temperature;BME280_humidity;BME280_pressure;Samples;Min_cycle;Max_cycle;Signal;HPM_P1;HPM_P2
2022/05/09 00:01:53;;;;;;;2.33;2.12;;;;;;;16.14;64.58;99766.20;1670846;85;20909;-66
2022/05/09 00:04:20;;;;;;;2.42;2.22;;;;;;;16.11;64.45;99767.13;1670945;85;21431;-66
2022/05/09 00:06:48;;;;;;;2.75;2.30;;;;;;;16.05;64.46;99764.22;1670523;86;20912;-66
2022/05/09 00:09:15;;;;;;;1.87;1.77;;;;;;;16.07;64.64;99772.05;1666444;85;21021;-66
2022/05/09 00:11:42;;;;;;;6.47;2.22;;;;;;;16.05;64.74;99766.90;1665251;86;21555;-66
2022/05/09 00:14:09;;;;;;;2.25;2.05;;;;;;;16.01;64.89;99764.78;1665378;86;20937;-66
2022/05/09 00:16:37;;;;;;;2.72;1.90;;;;;;;15.98;65.19;99766.02;1665692;84;21669;-66
2022/05/09 00:19:05;;;;;;;1.87;1.77;;;;;;;15.95;65.40;99766.44;1665165;86;20990;-68
2022/05/09 00:21:34;;;;;;;2.40;2.20;;;;;;;15.93;65.47;99764.94;1665314;86;21491;-70
2022/05/09 00:24:01;;;;;;;2.27;2.08;;;;;;;15.90;65.62;99768.85;1665277;86;21567;-65
2022/05/09 00:26:31;;;;;;;4.00;1.70;;;;;;;15.87;65.47;99771.95;1663390;86;21021;-72
2022/05/09 00:28:57;;;;;;;2.10;1.92;;;;;;;15.88;65.25;99775.44;1665387;85;21170;-70
2022/05/09 00:31:24;;;;;;;1.55;1.45;;;;;;;15.89;65.26;99776.60;1665134;86;20883;-68
2022/05/09 00:33:51;;;;;;;4.03;2.10;;;;;;;15.90;65.27;99778.24;1665451;86;21576;-69
2022/05/09 00:36:18;;;;;;;1.95;1.85;;;;;;;15.93;65.15;99775.67;1644515;86;21064;-67
2022/05/09 00:38:45;;;;;;;2.12;1.80;;;;;;;15.98;64.98;99775.94;1670600;86;20912;-69
2022/05/09 00:44:09;;;;;;;2.12;1.80;;;;;;;15.97;64.98;99776.45;1643721;87;20900;-70
2022/05/09 00:46:39;;;;;;;1.90;1.80;;;;;;;15.96;65.11;99771.27;1670669;86;21506;-67
2022/05/09 00:49:25;;;;;;;1.95;1.62;;;;;;;15.95;65.14;99778.51;1670628;86;21090;-72
2022/05/09 00:52:08;;;;;;;;;;;;;;;15.94;65.25;99779.52;1675641;84;20916;-67
2022/05/09 00:54:48;;;;;;;1.42;1.32;;;;;;;15.95;65.36;99785.22;1679489;83;20606;-69
2022/05/09 00:57:20;;;;;;;2.00;1.77;;;;;;;15.97;65.44;99784.50;1679421;85;20937;-69
2022/05/09 00:59:46;;;;;;;1.67;1.57;;;;;;;15.97;65.51;99795.23;1679004;85;20929;-70
2022/05/09 01:02:15;;;;;;;2.20;1.60;;;;;;;15.95;65.55;99787.06;1679092;85;21005;-66
2022/05/09 01:04:50;;;;;;;3.10;1.60;;;;;;;15.93;65.62;99791.77;1679387;85;20928;-65
2022/05/09 01:07:16;;;;;;;2.27;1.50;;;;;;;15.92;65.58;99794.16;1679798;85;21143;-66
2022/05/09 01:09:43;;;;;;;1.98;1.77;;;;;;;15.91;65.50;99797.34;1678784;85;21545;-67
2022/05/09 01:12:11;;;;;;;2.67;1.70;;;;;;;15.91;65.43;99796.52;1679464;85;21110;-70
2022/05/09 01:14:39;;;;;;;2.25;2.05;;;;;;;15.93;65.48;99791.77;1679345;85;20988;-67
2022/05/09 01:17:05;;;;;;;2.72;1.90;;;;;;;15.93;65.39;99793.12;1679067;85;20949;-71
2022/05/09 01:19:36;;;;;;;2.30;2.10;;;;;;;15.90;65.36;99794.34;1678846;85;21221;-68
2022/05/09 01:22:07;;;;;;;2.40;2.02;;;;;;;15.86;65.47;99797.11;1676415;85;20991;-67
2022/05/09 01:24:33;;;;;;;2.27;2.08;;;;;;;15.82;65.62;99798.55;1696894;83;21009;-70
2022/05/09 01:27:00;;;;;;;2.00;1.80;;;;;;;15.82;65.67;99797.71;1713200;83;21069;-67
2022/05/09 01:29:59;;;;;;;2.17;1.98;;;;;;;15.79;65.77;99804.30;1713171;83;20938;-66
2022/05/09 01:32:45;;;;;;;2.40;2.20;;;;;;;15.80;65.74;99801.91;1615580;87;21368;-66
2022/05/09 01:35:32;;;;;;;2.90;2.10;;;;;;;15.77;65.83;99807.66;1635943;87;21522;-69
2022/05/09 01:38:28;;;;;;;2.40;2.12;;;;;;;15.74;65.90;99808.08;1647413;84;21059;-67
2022/05/09 01:40:55;;;;;;;2.50;2.30;;;;;;;15.65;66.22;99811.91;1667720;85;20913;-70
2022/05/09 01:43:37;;;;;;;2.17;1.98;;;;;;;15.63;66.57;99816.66;1679229;85;20952;-68
2022/05/09 01:46:07;;;;;;;5.53;2.17;;;;;;;15.60;66.77;99809.50;1662316;85;21282;-68
2022/05/09 01:51:19;;;;;;;4.72;2.70;;;;;;;15.55;67.21;99819.47;1678858;85;20961;-66
2022/05/09 01:53:52;;;;;;;2.77;2.42;;;;;;;15.51;67.46;99815.53;1671181;85;20968;-66
2022/05/09 01:56:23;;;;;;;2.80;2.60;;;;;;;15.51;67.67;99815.53;1670278;85;20960;-66
2022/05/09 01:58:50;;;;;;;3.10;2.80;;;;;;;15.48;67.95;99811.06;1665279;86;21360;-66
2022/05/09 02:01:17;;;;;;;3.27;2.98;;;;;;;15.47;68.23;99818.77;1665489;86;20905;-66
2022/05/09 02:03:45;;;;;;;3.08;2.83;;;;;;;15.42;68.49;99818.82;1665712;86;21016;-66
2022/05/09 02:06:14;;;;;;;3.95;3.65;;;;;;;15.44;68.69;99828.00;1665689;84;20949;-66
2022/05/09 02:08:41;;;;;;;3.62;3.33;;;;;;;15.41;68.97;99827.88;1665471;86;21535;-66
2022/05/09 02:11:08;;;;;;;3.10;2.90;;;;;;;15.40;69.16;99834.28;1665448;86;21160;-66
2022/05/09 02:13:34;;;;;;;3.72;3.42;;;;;;;15.35;69.48;99829.17;1665616;86;21048;-66
2022/05/09 02:16:02;;;;;;;4.15;3.00;;;;;;;15.33;69.78;99836.55;1669442;86;21533;-66
2022/05/09 02:18:29;;;;;;;4.15;3.47;;;;;;;15.32;70.03;99841.11;1670976;86;20904;-66
2022/05/09 02:20:56;;;;;;;3.25;3.05;;;;;;;15.32;70.20;99841.61;1670945;86;21086;-66
2022/05/09 02:23:22;;;;;;;3.95;3.65;;;;;;;15.31;70.39;99846.64;1670626;85;21254;-66
2022/05/09 02:25:49;;;;;;;3.55;3.25;;;;;;;15.28;70.59;99841.16;1670879;85;21479;-66
2022/05/09 02:28:17;;;;;;;4.20;3.80;;;;;;;15.26;70.78;99844.55;1670942;85;20944;-66
2022/05/09 02:30:43;;;;;;;3.72;3.42;;;;;;;15.26;70.89;99852.59;1670601;86;20952;-69
2022/05/09 02:33:10;;;;;;;4.00;3.70;;;;;;;15.23;71.07;99855.64;1670462;85;21699;-69
2022/05/09 02:35:39;;;;;;;3.60;3.30;;;;;;;15.22;71.15;99866.06;1670986;85;21148;-69
2022/05/09 02:38:05;;;;;;;4.55;4.15;;;;;;;15.21;71.34;99863.05;1670027;86;20977;-69
2022/05/09 02:40:33;;;;;;;4.35;4.03;;;;;;;15.22;71.42;99871.42;1665401;86;21001;-66
2022/05/09 02:43:01;;;;;;;3.85;3.60;;;;;;;15.19;71.52;99881.17;1665246;86;21021;-65
2022/05/09 02:45:27;;;;;;;4.37;3.98;;;;;;;15.16;71.72;99884.23;1665334;86;20967;-65
2022/05/09 02:47:54;;;;;;;4.33;4.03;;;;;;;15.14;71.78;99884.11;1645026;86;21165;-66
2022/05/09 02:50:21;;;;;;;4.28;3.98;;;;;;;15.11;71.94;99888.50;1666158;86;21088;-65
2022/05/09 02:52:49;;;;;;;4.47;4.17;;;;;;;15.09;72.03;99890.55;1673518;85;20957;-66
2022/05/09 02:55:16;;;;;;;6.05;5.10;;;;;;;15.06;72.12;99894.43;1679661;85;21029;-69
2022/05/09 02:57:42;;;;;;;4.67;4.28;;;;;;;15.05;72.28;99888.74;1679551;85;21510;-68
2022/05/09 03:00:15;;;;;;;4.42;4.03;;;;;;;15.05;72.30;99891.42;1676549;85;21160;-68
2022/05/09 03:02:41;;;;;;;4.70;4.30;;;;;;;15.05;72.34;99898.12;1673448;85;20998;-67
2022/05/09 03:05:08;;;;;;;4.53;4.17;;;;;;;15.07;72.29;99898.75;1674018;85;21406;-69
2022/05/09 03:07:35;;;;;;;4.90;4.50;;;;;;;15.07;72.27;99901.43;1673762;85;20956;-69
2022/05/09 03:10:05;;;;;;;4.90;4.40;;;;;;;15.08;72.26;99904.95;1676394;85;20916;-67
2022/05/09 03:12:31;;;;;;;4.78;4.30;;;;;;;15.07;72.17;99907.33;1679255;85;21242;-66
2022/05/09 03:14:58;;;;;;;4.33;4.03;;;;;;;15.05;72.24;99912.85;1679329;85;20973;-68
2022/05/09 03:17:25;;;;;;;4.55;4.15;;;;;;;15.08;72.15;99912.98;1679750;85;20913;-68
2022/05/09 03:19:51;;;;;;;4.65;4.25;;;;;;;15.11;72.12;99910.77;1663141;85;21596;-68
2022/05/09 03:22:17;;;;;;;4.33;4.00;;;;;;;15.16;72.07;99916.89;1650552;87;20920;-67
2022/05/09 03:24:44;;;;;;;4.15;3.70;;;;;;;15.19;71.89;99917.86;1650514;87;21263;-66
2022/05/09 03:27:14;;;;;;;4.08;3.77;;;;;;;15.19;71.68;99922.72;1652618;85;21047;-66
2022/05/09 03:29:40;;;;;;;4.67;4.15;;;;;;;15.20;71.49;99920.88;1674228;85;21540;-66
2022/05/09 03:32:08;;;;;;;5.47;3.77;;;;;;;15.24;71.33;99926.16;1673741;85;20955;-66
2022/05/09 03:34:35;;;;;;;4.50;4.10;;;;;;;15.28;71.08;99928.77;1673867;85;21085;-66
2022/05/09 03:37:01;;;;;;;4.50;4.10;;;;;;;15.32;70.74;99936.77;1673824;85;21970;-66
2022/05/09 03:39:28;;;;;;;4.67;4.37;;;;;;;15.31;70.50;99931.91;1673799;85;20903;-66
2022/05/09 03:41:54;;;;;;;5.45;5.05;;;;;;;15.32;70.38;99936.77;1674049;85;20991;-66
2022/05/09 03:44:23;;;;;;;4.50;4.20;;;;;;;15.34;70.21;99946.28;1673552;85;20956;-66
2022/05/09 03:46:49;;;;;;;4.10;3.72;;;;;;;15.32;69.96;99942.97;1677863;85;20941;-65
2022/05/09 03:49:16;;;;;;;6.78;4.70;;;;;;;15.29;70.01;99939.83;1679550;85;22943;-65
2022/05/09 03:51:42;;;;;;;4.35;3.95;;;;;;;15.30;69.94;99942.30;1678605;85;20956;-66
2022/05/09 03:54:08;;;;;;;5.35;4.95;;;;;;;15.43;70.02;99947.00;1685791;85;20969;-67
2022/05/09 03:56:35;;;;;;;4.47;4.08;;;;;;;15.66;69.87;99954.39;1687030;85;21135;-66
2022/05/09 03:59:01;;;;;;;4.83;4.35;;;;;;;15.97;68.92;99955.39;1687166;85;20952;-66
2022/05/09 04:01:28;;;;;;;5.40;4.90;;;;;;;16.24;67.75;99950.53;1683655;85;21118;-67
2022/05/09 04:03:54;;;;;;;4.65;4.25;;;;;;;16.53;66.63;99949.52;1682680;85;21502;-66
2022/05/09 04:06:22;;;;;;;5.58;3.87;;;;;;;16.82;65.51;99950.63;1686996;85;20988;-66
2022/05/09 04:08:50;;;;;;;3.65;3.35;;;;;;;17.05;63.93;99952.49;1687063;85;21003;-65
2022/05/09 04:11:17;;;;;;;3.42;3.22;;;;;;;17.15;62.74;99961.01;1686655;85;20976;-66
2022/05/09 04:13:46;;;;;;;4.00;3.47;;;;;;;17.20;61.76;99956.39;1687214;85;21155;-68
2022/05/09 04:19:00;;;;;;;4.50;4.10;;;;;;;17.30;60.94;99964.91;1686762;85;21000;-66
2022/05/09 04:21:26;;;;;;;3.90;3.60;;;;;;;17.50;59.90;99962.27;1685799;85;21095;-64
2022/05/09 04:23:58;;;;;;;4.10;3.80;;;;;;;17.69;59.28;99958.31;1683545;85;20994;-65
2022/05/09 04:26:30;;;;;;;4.83;3.87;;;;;;;17.98;59.04;99965.19;1680491;85;21127;-64
2022/05/09 04:28:58;;;;;;;4.10;3.80;;;;;;;18.28;58.01;99962.37;1680788;85;21120;-65
2022/05/09 04:31:25;;;;;;;4.50;3.75;;;;;;;18.57;56.78;99967.03;1682797;85;20998;-66
2022/05/09 04:33:52;;;;;;;3.40;3.20;;;;;;;18.67;55.41;99968.77;1685191;85;21020;-65
2022/05/09 04:36:22;;;;;;;3.35;3.05;;;;;;;18.62;54.19;99974.80;1686270;85;21099;-64
2022/05/09 04:38:51;;;;;;;4.17;3.27;;;;;;;18.45;54.27;99973.05;1686501;84;22053;-64
2022/05/09 04:41:19;;;;;;;3.15;2.85;;;;;;;18.36;54.02;99974.80;1686080;85;21446;-66
2022/05/09 04:43:47;;;;;;;3.20;3.00;;;;;;;18.19;53.79;99979.80;1679533;85;21103;-63
2022/05/09 04:46:14;;;;;;;4.12;2.92;;;;;;;18.05;53.64;99983.51;1680858;85;20966;-65
2022/05/09 04:48:43;;;;;;;3.95;3.50;;;;;;;17.88;53.71;99983.61;1681013;85;22236;-67
2022/05/09 04:51:11;;;;;;;3.10;2.90;;;;;;;17.77;53.64;99994.45;1675562;85;21101;-64
2022/05/09 04:53:38;;;;;;;4.10;2.83;;;;;;;17.82;53.70;99983.91;1681274;85;21118;-66
2022/05/09 04:56:05;;;;;;;2.62;2.42;;;;;;;18.01;53.15;99989.00;1676011;85;21510;-65
2022/05/09 04:58:32;;;;;;;4.10;2.55;;;;;;;18.36;52.69;99986.92;1684576;84;20969;-65
2022/05/09 05:00:59;;;;;;;3.62;2.58;;;;;;;18.84;51.38;99991.55;1669425;85;21038;-65
2022/05/09 05:03:27;;;;;;;2.72;2.52;;;;;;;19.40;50.30;99986.38;1689958;84;21165;-66
2022/05/09 05:05:54;;;;;;;2.90;2.70;;;;;;;19.96;48.89;99982.43;1707155;84;20996;-68
2022/05/09 05:08:21;;;;;;;2.58;2.37;;;;;;;20.51;47.02;99986.17;1696017;84;21690;-69
2022/05/09 05:10:53;;;;;;;2.25;2.15;;;;;;;20.90;45.72;99986.59;1673560;85;21565;-66
2022/05/09 05:13:17;;;;;;;3.85;2.30;;;;;;;21.41;44.55;99991.63;1675499;85;21419;-66
2022/05/09 05:15:44;;;;;;;3.17;2.40;;;;;;;21.95;43.31;99993.37;1680083;84;21254;-65
2022/05/09 05:18:11;;;;;;;3.52;2.20;;;;;;;22.37;41.32;99993.37;1707206;84;21509;-69
2022/05/09 05:20:38;;;;;;;2.15;1.95;;;;;;;22.68;40.28;99990.34;1688171;84;21010;-68
2022/05/09 05:23:04;;;;;;;3.80;2.47;;;;;;;22.91;39.58;99991.68;1664323;86;21560;-67
2022/05/09 05:25:31;;;;;;;3.90;2.02;;;;;;;;;;1664295;86;21106;-67
2022/05/09 05:27:57;;;;;;;3.83;3.52;;;;;;;23.55;38.19;99985.16;1664207;86;21165;-66
2022/05/09 05:30:24;;;;;;;2.50;2.30;;;;;;;23.80;37.44;99992.97;1669579;85;21006;-68
2022/05/09 05:32:55;;;;;;;2.60;2.40;;;;;;;24.09;36.71;99989.72;1693371;84;21052;-67
2022/05/09 05:35:23;;;;;;;2.85;2.30;;;;;;;24.45;36.09;99989.22;1707146;83;21044;-66
2022/05/09 05:37:51;;;;;;;3.22;2.10;;;;;;;24.72;35.43;99992.89;1677613;84;20996;-67
2022/05/09 05:40:18;;;;;;;3.08;2.33;;;;;;;24.94;34.24;99992.97;1678459;85;21199;-66
2022/05/09 05:42:45;;;;;;;2.12;1.92;;;;;;;25.00;33.62;99996.05;1678344;85;21008;-65
2022/05/09 05:45:13;;;;;;;5.08;2.80;;;;;;;25.08;32.95;100000.50;1675772;85;21121;-66
2022/05/09 05:47:41;;;;;;;2.25;2.05;;;;;;;25.25;33.17;100000.45;1673293;85;21077;-65
2022/05/09 05:50:10;;;;;;;2.95;1.90;;;;;;;25.63;32.87;100003.65;1673386;85;21014;-66
2022/05/09 05:52:37;;;;;;;3.55;1.70;;;;;;;26.09;31.32;100001.69;1673317;85;21765;-64
2022/05/09 05:55:04;;;;;;;1.40;1.30;;;;;;;26.31;30.48;100011.16;1673519;85;21006;-65
2022/05/09 05:57:34;;;;;;;2.00;1.70;;;;;;;26.47;29.41;100012.94;1673652;85;21068;-63
2022/05/09 06:00:21;;;;;;;5.25;1.70;;;;;;;26.50;28.73;100012.42;1678512;85;21622;-67
2022/05/09 06:02:48;;;;;;;3.22;1.57;;;;;;;26.49;28.68;100014.86;1679102;85;21626;-65
2022/05/09 06:05:16;;;;;;;3.72;1.40;;;;;;;26.47;28.27;100020.30;1703207;84;21163;-66
2022/05/09 06:07:43;;;;;;;3.25;2.33;;;;;;;26.53;27.80;100020.63;1707584;84;20991;-65
2022/05/09 06:10:11;;;;;;;3.25;1.70;;;;;;;26.50;27.32;100026.59;1695986;84;21017;-66
2022/05/09 06:12:37;;;;;;;2.05;1.42;;;;;;;26.56;27.73;100026.92;1682585;85;20927;-68
2022/05/09 06:17:57;;;;;;;1.87;1.17;;;;;;;27.04;26.92;100025.36;1679003;85;21299;-67
2022/05/09 06:20:24;;;;;;;2.72;1.20;;;;;;;27.31;25.83;100025.23;1676993;85;20975;-64
2022/05/09 06:22:50;;;;;;;2.47;1.50;;;;;;;27.42;25.50;100025.05;1705663;84;21059;-63
2022/05/09 06:25:18;;;;;;;1.77;1.57;;;;;;;27.66;25.83;100027.32;1696050;84;21545;-65
2022/05/09 06:27:47;;;;;;;2.12;1.32;;;;;;;27.96;25.11;100014.54;1664394;86;21563;-65
2022/05/09 06:30:15;;;;;;;1.98;1.40;;;;;;;27.84;24.38;100022.72;1673603;83;21169;-66
2022/05/09 06:32:42;;;;;;;2.00;1.17;;;;;;;27.67;24.42;100034.41;1685833;83;20996;-72
2022/05/09 06:35:12;;;;;;;1.22;1.15;;;;;;;27.70;24.23;100036.61;1678472;85;20956;-66
2022/05/09 06:37:38;;;;;;;6.47;1.40;;;;;;;27.77;24.12;100046.20;1678299;85;21505;-68
2022/05/09 06:40:07;;;;;;;3.37;1.37;;;;;;;27.89;23.80;100047.33;1696423;83;21062;-65
2022/05/09 06:42:35;;;;;;;1.65;1.50;;;;;;;27.95;23.81;100044.90;1673908;85;21129;-66
2022/05/09 06:45:01;;;;;;;2.95;1.30;;;;;;;28.14;23.57;100050.97;1673120;85;21015;-66
2022/05/09 06:47:28;;;;;;;1.50;1.30;;;;;;;28.24;23.72;100047.95;1673406;85;20979;-66
2022/05/09 06:50:01;;;;;;;2.47;1.32;;;;;;;28.32;23.29;100048.78;1673070;85;21011;-67
2022/05/09 06:52:27;;;;;;;1.95;1.40;;;;;;;28.49;23.60;100041.98;1673272;85;21520;-70
2022/05/09 06:54:53;;;;;;;3.08;1.27;;;;;;;28.83;22.99;100051.01;1684288;84;21372;-68
2022/05/09 06:57:21;;;;;;;1.90;1.30;;;;;;;28.91;22.43;100054.56;1686587;85;21006;-68
2022/05/09 06:59:48;;;;;;;1.27;1.02;;;;;;;28.87;22.77;100058.93;1686449;85;22249;-70
2022/05/09 07:02:15;;;;;;;1.77;1.40;;;;;;;29.17;21.93;100060.25;1686158;85;21004;-68
2022/05/09 07:04:42;;;;;;;2.20;2.00;;;;;;;29.38;21.99;100058.55;1688137;83;21622;-71
2022/05/09 07:07:08;;;;;;;5.25;1.55;;;;;;;29.57;21.60;100056.02;1718192;83;21203;-68
2022/05/09 07:09:35;;;;;;;6.78;1.20;;;;;;;29.61;21.59;100064.52;1708679;83;20943;-67
2022/05/09 07:12:02;;;;;;;1.12;1.02;;;;;;;29.81;21.21;100058.95;1685855;83;21031;-68
2022/05/09 07:14:30;;;;;;;3.20;1.40;;;;;;;29.94;20.64;100057.79;1691049;83;20944;-65
2022/05/09 07:16:56;;;;;;;1.60;1.50;;;;;;;29.99;20.59;100061.05;1701819;83;21593;-68
2022/05/09 07:19:23;;;;;;;2.30;1.17;;;;;;;30.33;20.67;100060.54;1701442;83;21159;-69
2022/05/09 07:21:49;;;;;;;2.58;1.45;;;;;;;30.76;19.31;100069.84;1686410;83;20929;-68
2022/05/09 07:24:16;;;;;;;3.35;1.00;;;;;;;30.95;19.17;100061.16;1715199;83;21095;-69
2022/05/09 07:26:42;;;;;;;2.37;1.00;;;;;;;31.13;18.85;100063.16;1699756;83;21030;-69
2022/05/09 07:29:09;;;;;;;1.42;1.00;;;;;;;31.48;18.68;100064.73;1679755;85;21026;-66
2022/05/09 07:31:35;;;;;;;3.60;1.07;;;;;;;31.73;17.81;100067.14;1681130;85;21155;-68
2022/05/09 07:34:03;;;;;;;2.22;0.90;;;;;;;31.71;17.40;100068.00;1684797;85;21317;-69
2022/05/09 07:36:29;;;;;;;1.98;1.05;;;;;;;31.47;17.34;100076.82;1687010;83;21024;-67
2022/05/09 07:38:57;;;;;;;1.85;0.80;;;;;;;31.22;17.19;100066.64;1715273;83;21522;-67
2022/05/09 07:41:24;;;;;;;1.35;0.98;;;;;;;30.98;17.58;100072.11;1715232;83;20960;-68
2022/05/09 07:43:50;;;;;;;4.75;1.10;;;;;;;30.95;17.49;100070.77;1696744;83;21330;-67
2022/05/09 07:46:17;;;;;;;1.55;0.82;;;;;;;30.91;17.83;100074.39;1680905;85;20947;-69
2022/05/09 07:48:44;;;;;;;1.40;1.30;;;;;;;30.96;17.41;100076.54;1681113;85;21049;-71
2022/05/09 07:51:11;;;;;;;4.40;1.10;;;;;;;31.03;17.60;100076.19;1698514;83;21632;-67
2022/05/09 07:53:38;;;;;;;2.25;1.02;;;;;;;31.08;17.93;100076.95;1709652;83;21026;-68
2022/05/09 07:56:06;;;;;;;1.27;0.88;;;;;;;31.50;18.04;100077.61;1685253;85;21761;-70
2022/05/09 07:58:34;;;;;;;2.02;1.20;;;;;;;32.00;17.24;100078.09;1658747;86;21094;-70
2022/05/09 08:01:02;;;;;;;2.12;0.85;;;;;;;32.42;16.34;100078.56;1677986;83;21577;-71
2022/05/09 08:03:31;;;;;;;3.37;1.20;;;;;;;32.57;16.17;100076.97;1705162;83;21035;-67
2022/05/09 08:06:00;;;;;;;1.55;1.15;;;;;;;32.74;15.93;100074.48;1687848;85;21065;-68
2022/05/09 08:08:32;;;;;;;2.17;1.02;;;;;;;32.75;15.74;100070.59;1687697;85;21306;-69
2022/05/09 08:10:58;;;;;;;2.77;0.90;;;;;;;32.78;15.91;100070.82;1687890;83;20934;-70
2022/05/09 08:13:30;;;;;;;1.05;0.90;;;;;;;32.81;15.88;100078.48;1687124;84;21567;-70
2022/05/09 08:15:57;;;;;;;2.87;0.80;;;;;;;33.09;15.77;100079.94;1682463;85;21496;-71
2022/05/09 08:18:25;;;;;;;2.77;0.90;;;;;;;33.35;15.63;100072.81;1711331;83;22500;-69
2022/05/09 08:20:53;;;;;;;3.83;0.90;;;;;;;33.62;15.54;100074.23;1706287;83;21208;-71
2022/05/09 08:23:19;;;;;;;3.45;1.17;;;;;;;33.84;15.44;100074.28;1681227;83;20921;-68
2022/05/09 08:25:48;;;;;;;1.22;0.70;;;;;;;34.12;14.73;100077.30;1694252;83;20999;-68
2022/05/09 08:28:18;;;;;;;2.30;1.40;;;;;;;34.25;15.02;100077.55;1695437;83;21508;-68
2022/05/09 08:30:44;;;;;;;2.62;1.20;;;;;;;34.63;14.49;100076.08;1686964;85;20932;-68
2022/05/09 08:33:17;;;;;;;2.77;0.70;;;;;;;34.72;14.36;100078.34;1686720;83;21261;-71
2022/05/09 08:35:46;;;;;;;3.17;0.90;;;;;;;34.98;14.12;100077.94;1671726;85;20956;-65
2022/05/09 08:38:12;;;;;;;2.45;0.98;;;;;;;35.24;13.68;100087.21;1683808;85;21293;-70
2022/05/09 08:41:08;;;;;;;1.40;0.72;;;;;;;35.32;13.63;100087.00;1687155;85;21473;-70
2022/05/09 08:44:11;;;;;;;3.40;0.98;;;;;;;35.29;13.45;100089.83;1687502;85;20956;-66
2022/05/09 08:47:14;;;;;;;1.72;0.82;;;;;;;35.06;13.33;100093.79;1669432;85;21936;-70
2022/05/09 08:50:17;;;;;;;6.40;1.22;;;;;;;34.70;13.60;100095.81;1666543;85;21054;-69
2022/05/09 08:53:03;;;;;;;1.42;1.12;;;;;;;34.55;13.63;100084.56;1687034;85;20956;-69
2022/05/09 08:55:38;;;;;;;2.27;1.47;;;;;;;34.66;13.34;100088.71;1686931;84;21457;-69
2022/05/09 08:58:28;;;;;;;5.70;1.25;;;;;;;34.69;13.33;100092.79;1659718;85;20905;-67
2022/05/09 09:00:54;;;;;;;2.17;0.90;;;;;;;34.69;13.42;100095.55;1687506;85;21107;-65
2022/05/09 09:03:37;;;;;;;2.90;1.42;;;;;;;34.87;13.11;100087.63;1687215;85;21008;-65
2022/05/09 09:06:18;;;;;;;3.67;1.25;;;;;;;34.91;13.04;100089.20;1687125;85;21534;-66
2022/05/09 09:08:59;;;;;;;2.50;0.90;;;;;;;35.16;12.74;100092.69;1671785;85;21012;-66
2022/05/09 09:11:55;;;;;;;1.25;0.80;;;;;;;35.05;12.69;100087.17;1686802;85;20944;-67
2022/05/09 09:15:01;;;;;;;2.05;0.80;;;;;;;35.16;12.52;100089.92;1687035;85;21171;-66
2022/05/09 09:17:50;;;;;;;5.45;1.20;;;;;;;35.33;12.58;100090.81;1687091;84;20933;-64
2022/05/09 09:20:27;;;;;;;1.65;1.02;;;;;;;35.67;12.35;100089.32;1686367;85;21000;-67
2022/05/09 09:23:14;;;;;;;4.33;0.98;;;;;;;36.05;12.01;100094.58;1687053;85;20948;-66
2022/05/09 09:26:04;;;;;;;1.15;0.82;;;;;;;36.19;11.43;100088.30;1687157;85;21491;-66
2022/05/09 09:28:47;;;;;;;3.45;1.50;;;;;;;36.12;11.47;100086.59;1601319;85;21242;-66
2022/05/09 09:31:31;;;;;;;2.83;1.15;;;;;;;36.14;11.77;100087.67;1687086;85;21007;-67
2022/05/09 09:34:11;;;;;;;1.22;0.78;;;;;;;36.26;11.42;100091.42;1687003;85;20916;-66
2022/05/09 09:36:41;;;;;;;2.92;0.82;;;;;;;36.26;11.35;100090.60;1686238;85;21427;-66
2022/05/09 09:39:19;;;;;;;2.55;0.90;;;;;;;36.35;11.32;100096.38;1685165;85;20995;-66
2022/05/09 09:41:48;;;;;;;1.77;0.85;;;;;;;36.27;11.06;100093.03;1687017;85;21152;-66
2022/05/09 09:44:24;;;;;;;1.22;0.70;;;;;;;36.26;11.32;100092.80;1686881;85;21062;-66
2022/05/09 09:47:15;;;;;;;3.60;0.93;;;;;;;36.49;11.09;100094.30;1687049;85;21396;-64
2022/05/09 09:49:43;;;;;;;4.22;0.90;;;;;;;36.45;10.79;100091.89;1687191;85;21103;-66
2022/05/09 09:52:26;;;;;;;1.02;0.90;;;;;;;36.12;10.92;100092.70;1687144;85;20924;-65
2022/05/09 09:55:00;;;;;;;1.82;0.90;;;;;;;35.83;11.00;100099.62;1682156;85;21281;-65
2022/05/09 09:57:30;;;;;;;6.03;1.07;;;;;;;35.47;11.16;100100.95;1670979;86;21020;-66
2022/05/09 09:59:58;;;;;;;3.80;1.40;;;;;;;35.37;11.40;100096.53;1670897;86;21016;-66
2022/05/09 10:02:30;;;;;;;1.95;1.00;;;;;;;35.20;11.33;100097.27;1653771;86;21011;-66
2022/05/09 10:04:57;;;;;;;3.27;1.10;;;;;;;34.84;11.53;100099.86;1671122;85;21450;-67
2022/05/09 10:07:30;;;;;;;2.02;0.88;;;;;;;33.01;12.18;100103.47;1670838;86;21148;-63
2022/05/09 10:10:18;;;;;;;1.03;0.93;;;;;;;31.54;13.18;100107.55;1671032;85;20985;-68
2022/05/09 10:12:54;;;;;;;1.15;0.80;;;;;;;30.59;13.65;100101.00;1670926;85;20924;-65
2022/05/09 10:15:29;;;;;;;3.75;0.98;;;;;;;29.68;14.42;100100.66;1670333;85;20956;-68
2022/05/09 10:17:57;;;;;;;2.47;0.88;;;;;;;29.09;15.16;100105.47;1670960;85;26459;-65
2022/05/09 10:20:40;;;;;;;3.37;1.27;;;;;;;28.58;15.69;100100.53;1670900;85;22255;-66
2022/05/09 10:26:21;;;;;;;4.35;1.00;;;;;;;27.48;16.69;100103.20;1671141;86;21000;-64
2022/05/09 10:28:54;;;;;;;2.70;1.02;;;;;;;26.95;17.33;100108.33;1670907;86;21057;-65
2022/05/09 10:31:30;;;;;;;5.25;1.00;;;;;;;26.64;17.71;100105.05;1671180;86;20940;-68
2022/05/09 10:34:17;;;;;;;3.10;0.88;;;;;;;26.30;17.66;100106.36;1670926;85;21154;-65
2022/05/09 10:37:00;;;;;;;1.57;0.93;;;;;;;25.75;18.27;100103.80;1670914;85;20995;-66
2022/05/09 10:39:33;;;;;;;2.72;0.90;;;;;;;25.33;18.30;100101.30;1671055;86;20962;-67
2022/05/09 10:42:05;;;;;;;1.47;0.93;;;;;;;25.12;18.56;100099.66;1670631;85;20948;-65
2022/05/09 10:44:53;;;;;;;1.60;0.90;;;;;;;24.93;18.86;100096.91;1671038;86;20947;-66
2022/05/09 10:47:40;;;;;;;1.92;1.10;;;;;;;24.61;18.81;100103.99;1670929;85;21557;-65
2022/05/09 10:50:31;;;;;;;1.57;0.95;;;;;;;24.26;19.04;100098.75;1671073;86;20929;-67
2022/05/09 10:53:25;;;;;;;1.62;0.95;;;;;;;24.10;19.58;100095.98;1670989;85;20956;-68
2022/05/09 10:56:09;;;;;;;1.50;0.90;;;;;;;23.94;19.78;100102.98;1667186;84;21532;-67
2022/05/09 10:59:02;;;;;;;1.42;0.70;;;;;;;23.85;19.91;100099.02;1671010;86;20948;-65
2022/05/09 11:01:36;;;;;;;1.98;0.80;;;;;;;23.65;19.98;100095.87;1659430;86;21194;-64
2022/05/09 11:04:02;;;;;;;2.70;0.90;;;;;;;23.50;20.15;100103.70;1670926;86;21581;-64
2022/05/09 11:07:13;;;;;;;1.12;0.93;;;;;;;23.47;20.25;100093.31;1630859;86;20948;-68
2022/05/09 11:10:08;;;;;;;1.30;0.70;;;;;;;23.42;20.57;100098.11;1670952;86;20912;-64
2022/05/09 11:13:13;;;;;;;2.70;1.17;;;;;;;23.25;20.69;100096.64;1666256;86;20952;-66
2022/05/09 11:16:06;;;;;;;1.52;0.95;;;;;;;23.14;21.01;100095.28;1671055;86;21169;-67
2022/05/09 11:18:53;;;;;;;2.25;1.17;;;;;;;23.04;21.02;100090.46;1670686;85;20920;-65
2022/05/09 11:21:50;;;;;;;1.60;0.80;;;;;;;22.95;21.14;100091.03;1670758;85;20908;-65
2022/05/09 11:24:43;;;;;;;3.60;1.23;;;;;;;22.92;21.52;100090.97;1671195;85;21006;-64
2022/05/09 11:27:29;;;;;;;1.20;0.75;;;;;;;22.98;21.63;100093.27;1671356;86;20908;-65
2022/05/09 11:30:29;;;;;;;2.20;0.80;;;;;;;22.96;21.03;100084.03;1671051;85;20869;-65
2022/05/09 11:33:17;;;;;;;2.47;1.10;;;;;;;22.93;21.45;100091.28;1670868;86;20929;-65
2022/05/09 11:35:44;;;;;;;1.20;1.10;;;;;;;22.87;21.21;100082.72;1670182;85;20948;-65
2022/05/09 11:38:52;;;;;;;2.22;0.90;;;;;;;22.83;21.38;100076.12;1670905;86;20956;-66
2022/05/09 11:41:45;;;;;;;2.62;0.90;;;;;;;22.87;21.35;100063.73;1671049;85;21015;-65
2022/05/09 11:44:18;;;;;;;4.22;0.80;;;;;;;22.82;21.60;100069.03;1670902;86;21168;-65
2022/05/09 11:47:15;;;;;;;1.47;0.70;;;;;;;22.66;21.67;100071.08;1670976;86;20900;-66
2022/05/09 11:50:05;;;;;;;1.50;0.70;;;;;;;22.53;21.84;100066.67;1667019;86;21015;-66
2022/05/09 11:52:43;;;;;;;2.05;0.95;;;;;;;22.43;21.92;100061.53;1670931;86;21050;-69
2022/05/09 11:55:21;;;;;;;3.22;1.12;;;;;;;22.34;21.85;100071.91;1670814;85;20976;-65
2022/05/09 11:58:00;;;;;;;1.05;0.70;;;;;;;22.34;21.95;100065.66;1670828;86;21151;-65
2022/05/09 12:00:38;;;;;;;2.92;0.90;;;;;;;22.35;21.96;100068.64;1670928;86;20936;-66
2022/05/09 12:03:07;;;;;;;3.70;0.90;;;;;;;22.31;21.48;100064.76;1668691;85;21071;-66
2022/05/09 12:05:40;;;;;;;1.45;0.80;;;;;;;22.19;21.75;100066.06;1670947;85;21557;-65
2022/05/09 12:08:18;;;;;;;2.33;0.80;;;;;;;22.01;21.75;100062.89;1670894;86;20961;-65